Time;durP1;ratioP1;P1;durP2;ratioP2;P2;SDS_P1;SDS_P2;PMS_P1;PMS_P2;Temp;Humidity;BMP_temperature;BMP_pressure;BME280_temperature;BME280_humidity;BME280_pressure;Samples;Min_cycle;Max_cycle;Signal;HPM_P1;HPM_P2
2022/07/30 00:02:12;;;;;;;8.07;4.72;;;18.00;78.90;;;;;;5075577;28;20382;-75
2022/07/30 00:04:38;;;;;;;9.23;5.38;;;17.90;79.00;;;;;;5075466;28;20087;-76
2022/07/30 00:07:04;;;;;;;7.95;4.85;;;17.90;79.20;;;;;;5093765;28;20047;-75
2022/07/30 00:09:30;;;;;;;7.28;5.05;;;17.90;79.60;;;;;;5075212;28;20476;-73
2022/07/30 00:11:55;;;;;;;9.27;5.43;;;17.80;79.80;;;;;;5075213;28;20043;-74
2022/07/30 00:14:21;;;;;;;6.97;5.05;;;17.80;79.90;;;;;;5074977;28;20035;-75
2022/07/30 00:16:47;;;;;;;11.23;5.38;;;17.80;80.30;;;;;;5074746;28;20388;-74
2022/07/30 00:19:12;;;;;;;9.35;5.03;;;17.70;80.60;;;;;;5074959;28;20047;-75
2022/07/30 00:21:38;;;;;;;6.07;5.07;;;17.70;80.60;;;;;;5074956;28;20027;-75
2022/07/30 00:24:04;;;;;;;8.65;5.10;;;17.70;81.00;;;;;;5075162;28;20031;-75
2022/07/30 00:26:30;;;;;;;8.07;5.30;;;17.60;81.40;;;;;;5093164;28;20048;-75
2022/07/30 00:28:56;;;;;;;7.95;4.95;;;17.60;81.40;;;;;;5093215;28;20351;-74
2022/07/30 00:31:21;;;;;;;6.68;4.95;;;17.60;81.60;;;;;;5093030;28;20383;-74
2022/07/30 00:33:47;;;;;;;9.93;5.40;;;17.50;81.60;;;;;;5074822;28;20138;-75
2022/07/30 00:36:12;;;;;;;9.00;5.15;;;17.50;81.80;;;;;;5092852;28;20447;-74
2022/07/30 00:38:38;;;;;;;7.38;5.25;;;17.50;82.10;;;;;;5092817;28;20020;-75
2022/07/30 00:41:04;;;;;;;8.95;5.50;;;17.50;82.30;;;;;;5093091;28;20103;-75
2022/07/30 00:43:29;;;;;;;10.05;5.70;;;17.40;82.90;;;;;;5074756;28;20420;-75
2022/07/30 00:45:55;;;;;;;9.98;5.43;;;17.40;82.50;;;;;;5074723;28;20031;-75
2022/07/30 00:48:20;;;;;;;7.68;5.07;;;17.40;82.50;;;;;;5092913;28;20043;-74
2022/07/30 00:50:46;;;;;;;9.73;5.32;;;17.40;82.50;;;;;;5092950;28;20046;-75
2022/07/30 00:53:13;;;;;;;6.15;4.97;;;17.50;82.40;;;;;;5093190;28;20551;-76
2022/07/30 00:55:38;;;;;;;7.78;5.05;;;17.50;82.30;;;;;;5074864;28;20016;-75
2022/07/30 00:58:04;;;;;;;6.25;4.53;;;17.50;82.30;;;;;;5092869;28;20028;-75
2022/07/30 01:00:30;;;;;;;8.35;4.78;;;17.50;82.30;;;;;;5074682;28;20020;-75
2022/07/30 01:02:55;;;;;;;7.05;4.63;;;17.60;82.30;;;;;;5092592;28;20359;-75
2022/07/30 01:05:22;;;;;;;5.40;4.60;;;17.50;82.40;;;;;;5073876;28;20106;-76
2022/07/30 01:07:47;;;;;;;7.68;4.72;;;17.50;82.50;;;;;;5074275;28;20016;-76
2022/07/30 01:10:14;;;;;;;7.38;4.82;;;17.50;82.60;;;;;;5092276;28;20036;-76
2022/07/30 01:12:41;;;;;;;8.27;4.43;;;17.50;82.60;;;;;;5091024;28;20013;-75
2022/07/30 01:15:09;;;;;;;7.03;5.18;;;17.50;82.70;;;;;;5090885;28;20145;-75
2022/07/30 01:17:35;;;;;;;5.28;4.28;;;17.40;82.80;;;;;;5074213;28;20024;-75
2022/07/30 01:20:05;;;;;;;7.88;5.15;;;17.40;82.90;;;;;;5091074;28;20369;-75
2022/07/30 01:22:44;;;;;;;10.68;5.10;;;17.40;82.90;;;;;;5074130;28;20016;-75
2022/07/30 01:25:22;;;;;;;7.20;5.47;;;17.40;83.00;;;;;;5074101;28;20027;-76
2022/07/30 01:27:50;;;;;;;6.68;5.30;;;17.30;83.10;;;;;;5074158;28;20031;-76
2022/07/30 01:30:20;;;;;;;9.02;6.00;;;17.30;83.20;;;;;;5091229;28;20012;-76
2022/07/30 01:32:47;;;;;;;7.45;5.70;;;17.20;83.30;;;;;;5092348;28;20108;-75
2022/07/30 01:35:19;;;;;;;6.55;5.13;;;17.20;83.40;;;;;;5087398;28;20471;-75
2022/07/30 01:37:46;;;;;;;7.93;5.35;;;17.20;83.50;;;;;;5087764;28;20067;-76
2022/07/30 01:40:13;;;;;;;8.43;5.90;;;17.20;83.50;;;;;;5072148;28;20036;-76
2022/07/30 01:42:40;;;;;;;7.97;5.65;;;17.10;83.50;;;;;;5087807;28;20488;-76
2022/07/30 01:45:08;;;;;;;8.20;5.65;;;17.20;83.50;;;;;;5087700;28;20111;-76
2022/07/30 01:47:35;;;;;;;10.68;6.25;;;17.20;83.40;;;;;;5087814;28;20142;-76
2022/07/30 01:50:05;;;;;;;8.63;5.88;;;17.20;83.40;;;;;;5073565;28;20056;-76
2022/07/30 01:52:32;;;;;;;9.07;6.55;;;17.20;83.50;;;;;;5091350;28;20021;-75
2022/07/30 01:55:00;;;;;;;9.13;5.30;;;17.20;83.50;;;;;;5091511;28;20077;-76
2022/07/30 01:57:27;;;;;;;7.15;5.80;;;17.20;83.50;;;;;;5075615;28;20032;-75
2022/07/30 02:00:03;;;;;;;10.45;6.10;;;17.30;83.50;;;;;;5091281;28;20032;-76
2022/07/30 02:02:29;;;;;;;8.68;5.47;;;17.30;83.40;;;;;;5091347;28;20047;-75
2022/07/30 02:04:54;;;;;;;7.90;5.70;;;17.40;83.30;;;;;;5075649;28;20028;-75
2022/07/30 02:07:47;;;;;;;10.32;5.57;;;17.40;83.20;;;;;;5075595;28;20048;-75
2022/07/30 02:10:32;;;;;;;9.23;6.40;;;17.50;83.20;;;;;;5091168;28;20398;-76
2022/07/30 02:13:00;;;;;;;7.70;5.65;;;17.50;83.00;;;;;;5073714;28;20455;-75
2022/07/30 02:15:29;;;;;;;6.70;5.75;;;17.50;82.90;;;;;;5075411;28;20020;-76
2022/07/30 02:18:21;;;;;;;8.05;5.72;;;17.40;83.00;;;;;;5074160;28;20032;-75
2022/07/30 02:20:58;;;;;;;7.10;5.32;;;17.40;83.20;;;;;;5073938;28;20036;-75
2022/07/30 02:23:27;;;;;;;7.72;6.18;;;17.40;83.10;;;;;;5074015;28;20051;-76
2022/07/30 02:25:54;;;;;;;10.20;5.35;;;17.50;83.00;;;;;;5073850;28;20027;-76
2022/07/30 02:28:22;;;;;;;8.32;5.45;;;17.60;83.00;;;;;;5073971;28;20024;-76
2022/07/30 02:30:52;;;;;;;7.78;5.63;;;17.60;83.00;;;;;;5090907;28;20020;-76
2022/07/30 02:33:23;;;;;;;8.68;5.80;;;17.60;82.90;;;;;;5093535;28;20055;-75
2022/07/30 02:35:50;;;;;;;6.50;5.45;;;17.60;83.00;;;;;;5093781;28;20032;-75
2022/07/30 02:38:17;;;;;;;7.68;5.53;;;17.60;83.00;;;;;;5093983;28;20446;-76
2022/07/30 02:40:43;;;;;;;6.55;5.93;;;17.60;82.90;;;;;;5076926;28;20028;-76
2022/07/30 02:43:13;;;;;;;6.53;5.22;;;17.60;82.90;;;;;;5093790;28;20101;-76
2022/07/30 02:45:40;;;;;;;5.60;4.85;;;17.70;82.90;;;;;;5095168;28;20063;-75
2022/07/30 02:48:09;;;;;;;6.05;5.45;;;17.70;82.80;;;;;;5093779;28;20491;-75
2022/07/30 02:50:35;;;;;;;5.78;5.20;;;17.70;82.80;;;;;;5094773;28;20039;-75
2022/07/30 02:53:03;;;;;;;6.00;5.40;;;17.70;82.80;;;;;;5095419;28;20020;-76
2022/07/30 02:55:32;;;;;;;7.07;5.47;;;17.70;82.80;;;;;;5095098;28;20028;-76
2022/07/30 02:57:58;;;;;;;6.88;5.70;;;17.70;82.80;;;;;;5076818;28;20506;-76
2022/07/30 03:00:25;;;;;;;6.15;5.55;;;17.70;82.90;;;;;;5094587;28;20085;-76
2022/07/30 03:02:53;;;;;;;6.68;5.13;;;17.60;82.90;;;;;;5093572;28;20542;-76
2022/07/30 03:05:19;;;;;;;6.55;5.25;;;17.60;82.90;;;;;;5094766;28;20081;-75
2022/07/30 03:07:46;;;;;;;7.03;5.63;;;17.60;82.90;;;;;;5093600;28;20026;-76
2022/07/30 03:10:12;;;;;;;7.80;5.50;;;17.60;83.00;;;;;;5093208;28;20360;-76
2022/07/30 03:12:41;;;;;;;7.05;5.40;;;17.60;82.90;;;;;;5093165;28;20020;-75
2022/07/30 03:15:07;;;;;;;11.82;5.13;;;17.60;82.90;;;;;;5094721;28;20024;-76
2022/07/30 03:17:47;;;;;;;7.15;5.85;;;17.60;83.10;;;;;;5076210;28;20039;-76
2022/07/30 03:20:17;;;;;;;8.82;6.10;;;17.60;83.20;;;;;;5093072;28;20503;-75
2022/07/30 03:22:46;;;;;;;7.00;6.05;;;17.50;83.20;;;;;;5094372;28;20102;-76
2022/07/30 03:25:15;;;;;;;6.85;5.60;;;17.50;83.20;;;;;;5075657;28;20028;-76
2022/07/30 03:27:42;;;;;;;8.07;5.97;;;17.50;83.30;;;;;;5093076;28;20503;-77
2022/07/30 03:30:08;;;;;;;6.60;5.88;;;17.50;83.30;;;;;;5093132;28;20024;-75
2022/07/30 03:32:35;;;;;;;6.53;5.60;;;17.50;83.30;;;;;;5094295;28;20090;-75
2022/07/30 03:35:02;;;;;;;7.75;6.55;;;17.50;83.30;;;;;;5075520;28;20056;-75
2022/07/30 03:37:30;;;;;;;6.68;5.35;;;17.50;83.30;;;;;;5091750;28;20131;-75
2022/07/30 03:39:56;;;;;;;6.78;6.07;;;17.50;83.30;;;;;;5092510;28;20595;-75
2022/07/30 03:42:24;;;;;;;9.63;6.40;;;17.50;83.30;;;;;;5093857;28;20024;-75
2022/07/30 03:44:50;;;;;;;9.05;6.63;;;17.50;83.50;;;;;;5093690;28;20114;-76
2022/07/30 03:47:17;;;;;;;6.70;6.00;;;17.40;83.50;;;;;;5075586;28;20032;-74
2022/07/30 03:49:43;;;;;;;7.28;6.10;;;17.40;83.60;;;;;;5075458;28;20128;-75
2022/07/30 03:52:09;;;;;;;8.35;6.95;;;17.40;83.70;;;;;;5093678;28;20059;-74
2022/07/30 03:54:35;;;;;;;7.10;6.38;;;17.40;83.80;;;;;;5092437;28;20069;-75
2022/07/30 03:57:03;;;;;;;6.03;5.43;;;17.40;83.90;;;;;;5092331;28;20043;-74
2022/07/30 03:59:29;;;;;;;7.82;5.80;;;17.40;83.90;;;;;;5092308;28;20572;-75
2022/07/30 04:02:00;;;;;;;14.10;6.60;;;17.40;83.70;;;;;;5093651;28;20076;-74
2022/07/30 04:04:26;;;;;;;7.50;6.35;;;17.40;83.70;;;;;;5091982;28;20031;-75
2022/07/30 04:06:51;;;;;;;7.88;6.03;;;17.50;83.70;;;;;;5075228;28;20372;-75
2022/07/30 04:09:18;;;;;;;6.97;6.22;;;17.50;83.60;;;;;;5093463;28;20107;-74
2022/07/30 04:11:44;;;;;;;6.15;5.55;;;17.50;83.60;;;;;;5093478;28;20042;-75
2022/07/30 04:14:09;;;;;;;6.30;5.53;;;17.50;83.50;;;;;;5092611;28;20024;-75
2022/07/30 04:16:43;;;;;;;6.05;5.10;;;17.50;83.50;;;;;;5072376;28;20499;-74
2022/07/30 04:19:37;;;;;;;6.30;5.40;;;17.40;83.50;;;;;;5075119;28;20495;-75
2022/07/30 04:22:04;;;;;;;9.27;4.70;;;17.50;83.60;;;;;;5085293;28;20062;-74
2022/07/30 04:24:31;;;;;;;6.03;4.57;;;17.40;83.50;;;;;;5091497;28;20028;-75
2022/07/30 04:26:59;;;;;;;9.55;4.75;;;17.40;83.60;;;;;;5091866;28;20445;-75
2022/07/30 04:29:24;;;;;;;5.95;4.90;;;17.30;83.60;;;;;;5093172;28;20517;-75
2022/07/30 04:31:52;;;;;;;6.90;5.28;;;17.30;83.70;;;;;;5074964;28;20024;-75
2022/07/30 04:34:17;;;;;;;9.90;5.45;;;17.30;83.70;;;;;;5074566;28;20040;-75
2022/07/30 04:36:44;;;;;;;7.05;5.28;;;17.30;83.80;;;;;;5074856;28;20505;-76
2022/07/30 04:39:11;;;;;;;6.20;5.00;;;17.20;83.80;;;;;;5074993;28;20198;-76
2022/07/30 04:41:37;;;;;;;8.15;5.30;;;17.30;83.90;;;;;;5091816;28;20114;-76
2022/07/30 04:44:03;;;;;;;6.80;5.00;;;17.30;83.90;;;;;;5092866;28;20032;-77
2022/07/30 04:46:29;;;;;;;5.80;5.28;;;17.30;83.90;;;;;;5074712;28;20016;-74
2022/07/30 04:48:55;;;;;;;9.70;5.18;;;17.20;83.90;;;;;;5074804;28;20093;-75
2022/07/30 04:51:28;;;;;;;6.65;4.93;;;17.30;83.90;;;;;;5093063;28;20020;-75
2022/07/30 04:53:56;;;;;;;7.90;5.32;;;17.20;83.90;;;;;;5074950;28;20028;-75
2022/07/30 04:56:23;;;;;;;7.45;5.13;;;17.30;83.90;;;;;;5074865;28;20105;-76
2022/07/30 04:58:50;;;;;;;5.90;4.50;;;17.30;83.90;;;;;;5074569;28;20540;-76
2022/07/30 05:01:26;;;;;;;9.27;5.18;;;17.30;83.90;;;;;;5091697;28;20111;-75
2022/07/30 05:03:52;;;;;;;6.00;4.90;;;17.30;84.00;;;;;;5092781;28;20024;-76
2022/07/30 05:06:19;;;;;;;9.82;5.25;;;17.30;83.90;;;;;;5092096;28;20376;-75
2022/07/30 05:08:45;;;;;;;7.18;4.60;;;17.30;83.90;;;;;;5092694;28;20024;-75
2022/07/30 05:11:11;;;;;;;7.28;4.70;;;17.30;83.90;;;;;;5092621;28;20043;-76
2022/07/30 05:13:40;;;;;;;5.85;4.25;;;17.30;84.00;;;;;;5091176;28;20020;-75
2022/07/30 05:16:06;;;;;;;4.82;4.32;;;17.30;83.90;;;;;;5074619;28;20080;-76
2022/07/30 05:18:31;;;;;;;6.18;5.05;;;17.40;83.90;;;;;;5092912;28;20099;-75
2022/07/30 05:20:57;;;;;;;9.15;5.80;;;17.40;83.80;;;;;;5092711;28;20024;-76
2022/07/30 05:23:22;;;;;;;6.85;5.28;;;17.40;83.70;;;;;;5074922;28;20024;-76
2022/07/30 05:25:48;;;;;;;7.15;5.07;;;17.40;83.80;;;;;;5078783;28;20056;-76
2022/07/30 05:28:14;;;;;;;7.53;4.13;;;17.40;83.80;;;;;;5078779;28;20027;-76
2022/07/30 05:34:02;;;;;;;6.85;4.30;;;17.50;83.70;;;;;;5096754;28;20113;-75
2022/07/30 05:36:27;;;;;;;7.28;4.47;;;17.50;83.50;;;;;;5078649;28;20016;-75
2022/07/30 05:38:53;;;;;;;5.35;4.18;;;17.50;83.50;;;;;;5096681;28;20023;-76
2022/07/30 05:41:19;;;;;;;6.00;3.88;;;17.50;83.50;;;;;;5078600;28;20012;-76
2022/07/30 05:43:44;;;;;;;11.63;4.35;;;17.50;83.50;;;;;;5078399;28;20043;-76
2022/07/30 05:46:10;;;;;;;5.50;4.20;;;17.50;83.40;;;;;;5078105;28;20055;-76
2022/07/30 05:48:35;;;;;;;4.32;3.90;;;17.60;83.40;;;;;;5078493;28;20494;-76
2022/07/30 05:51:02;;;;;;;7.35;4.20;;;17.60;83.30;;;;;;5078126;28;20110;-76
2022/07/30 05:53:27;;;;;;;7.03;4.13;;;17.60;83.20;;;;;;5078248;28;20487;-75
2022/07/30 05:55:53;;;;;;;6.53;3.47;;;17.60;83.20;;;;;;5078310;28;20086;-76
2022/07/30 05:58:19;;;;;;;4.68;3.65;;;17.60;83.10;;;;;;5096588;28;20055;-75
2022/07/30 06:00:45;;;;;;;4.72;3.63;;;17.60;83.00;;;;;;5096309;28;20100;-76
2022/07/30 06:03:10;;;;;;;4.63;3.83;;;17.70;82.90;;;;;;5096174;28;20076;-75
2022/07/30 06:05:36;;;;;;;6.13;3.60;;;17.70;82.90;;;;;;5077154;28;20407;-75
2022/07/30 06:08:02;;;;;;;6.00;3.67;;;17.70;82.80;;;;;;5095985;28;20025;-76
2022/07/30 06:10:28;;;;;;;5.75;3.60;;;17.80;82.70;;;;;;5077748;28;20389;-76
2022/07/30 06:12:54;;;;;;;9.80;3.85;;;17.80;82.60;;;;;;5077509;28;20028;-76
2022/07/30 06:15:20;;;;;;;4.40;3.45;;;17.80;82.50;;;;;;5077186;28;20110;-76
2022/07/30 06:17:46;;;;;;;5.40;3.50;;;17.80;82.40;;;;;;5077463;28;20447;-76
2022/07/30 06:20:14;;;;;;;5.65;3.95;;;17.80;82.40;;;;;;5094314;28;20022;-76
2022/07/30 06:22:41;;;;;;;8.25;3.80;;;17.80;82.30;;;;;;5095709;28;20436;-76
2022/07/30 06:25:07;;;;;;;5.13;3.45;;;17.90;82.30;;;;;;5076895;28;20024;-76
2022/07/30 06:27:35;;;;;;;7.55;3.55;;;17.90;82.30;;;;;;5077421;28;20032;-75
2022/07/30 06:30:02;;;;;;;5.50;3.42;;;17.90;82.10;;;;;;5094587;28;20402;-76
2022/07/30 06:32:28;;;;;;;4.10;3.10;;;18.00;82.10;;;;;;5095471;28;20016;-76
2022/07/30 06:34:53;;;;;;;19.77;4.35;;;18.00;81.90;;;;;;5095238;28;20052;-76
2022/07/30 06:37:19;;;;;;;7.15;3.70;;;18.00;81.80;;;;;;5076725;28;20028;-76
2022/07/30 06:39:44;;;;;;;5.05;3.30;;;18.10;81.70;;;;;;5077330;28;20058;-76
2022/07/30 06:42:10;;;;;;;5.25;3.20;;;18.10;81.60;;;;;;5077032;28;20494;-76
2022/07/30 06:44:35;;;;;;;5.15;3.00;;;18.20;81.40;;;;;;5076408;28;20040;-76
2022/07/30 06:47:01;;;;;;;7.15;3.35;;;18.20;81.30;;;;;;5077189;28;20146;-75
2022/07/30 06:49:29;;;;;;;5.20;2.65;;;18.20;81.20;;;;;;5095194;28;20103;-76
2022/07/30 06:51:55;;;;;;;4.47;2.90;;;18.30;81.20;;;;;;5076846;28;20023;-76
2022/07/30 06:54:21;;;;;;;4.70;3.00;;;18.30;81.00;;;;;;5076625;28;20024;-76
2022/07/30 06:56:46;;;;;;;4.57;2.97;;;18.30;80.90;;;;;;5076643;28;20024;-75
2022/07/30 06:59:12;;;;;;;7.75;2.72;;;18.40;80.80;;;;;;5076499;28;20055;-76
2022/07/30 07:01:40;;;;;;;6.13;3.17;;;18.40;80.60;;;;;;5076930;28;20024;-76
2022/07/30 07:04:06;;;;;;;3.50;2.90;;;18.40;80.40;;;;;;5076707;28;20489;-76
2022/07/30 07:06:32;;;;;;;5.93;3.13;;;18.50;80.30;;;;;;5095030;28;20028;-76
2022/07/30 07:08:58;;;;;;;5.20;2.90;;;18.50;80.20;;;;;;5094812;28;20031;-76
2022/07/30 07:11:23;;;;;;;4.07;2.60;;;18.50;80.00;;;;;;5076358;28;20459;-75
2022/07/30 07:13:50;;;;;;;3.95;2.83;;;18.60;80.00;;;;;;5076454;28;20023;-77
2022/07/30 07:16:20;;;;;;;5.30;2.58;;;18.70;80.50;;;;;;5093362;28;20032;-76
2022/07/30 07:18:46;;;;;;;5.10;2.95;;;18.70;79.70;;;;;;5093130;28;20017;-76
2022/07/30 07:21:12;;;;;;;4.68;2.35;;;18.80;79.40;;;;;;5093111;28;20035;-76
2022/07/30 07:23:37;;;;;;;4.00;2.45;;;18.90;79.10;;;;;;5076517;28;20020;-77
2022/07/30 07:26:03;;;;;;;6.15;2.70;;;18.90;78.80;;;;;;5075709;28;20418;-76
2022/07/30 07:28:29;;;;;;;4.53;2.13;;;19.00;78.50;;;;;;5075991;28;20020;-76
2022/07/30 07:30:54;;;;;;;2.80;2.30;;;19.00;78.40;;;;;;5075843;28;20112;-77
2022/07/30 07:33:20;;;;;;;27.60;4.35;;;19.00;78.40;;;;;;5076293;28;20040;-76
2022/07/30 07:35:46;;;;;;;5.43;2.60;;;19.00;78.30;;;;;;5075835;28;20463;-76
2022/07/30 07:38:11;;;;;;;4.53;2.25;;;19.10;78.20;;;;;;5093826;28;20487;-74
2022/07/30 07:40:37;;;;;;;3.65;1.90;;;19.20;77.90;;;;;;5075773;28;20403;-77
2022/07/30 07:46:24;;;;;;;4.03;2.22;;;19.30;77.20;;;;;;5094389;28;20175;-76
2022/07/30 07:48:50;;;;;;;4.88;2.30;;;19.30;76.50;;;;;;5075309;28;20059;-76
2022/07/30 07:51:15;;;;;;;5.25;2.15;;;19.40;76.40;;;;;;5094139;28;20459;-75
2022/07/30 07:53:41;;;;;;;5.38;2.25;;;19.40;76.70;;;;;;5093895;28;20032;-75
2022/07/30 07:56:07;;;;;;;11.65;3.30;;;19.50;75.80;;;;;;5094006;28;20062;-75
2022/07/30 07:58:33;;;;;;;6.18;2.40;;;19.50;75.50;;;;;;5075870;28;20532;-75
2022/07/30 08:00:59;;;;;;;6.05;2.42;;;19.40;75.10;;;;;;5093909;28;20024;-75
2022/07/30 08:03:24;;;;;;;8.98;2.78;;;19.50;74.80;;;;;;5093815;28;20073;-77
2022/07/30 08:05:53;;;;;;;3.85;2.30;;;19.50;74.60;;;;;;5075400;28;20024;-76
2022/07/30 08:08:18;;;;;;;11.15;3.50;;;19.50;74.20;;;;;;5093586;28;20093;-76
2022/07/30 08:10:44;;;;;;;8.70;3.20;;;19.60;73.70;;;;;;5075452;28;20439;-75
2022/07/30 08:13:10;;;;;;;7.40;2.65;;;19.60;73.50;;;;;;5076074;28;20079;-76
2022/07/30 08:15:36;;;;;;;4.13;2.53;;;19.60;73.10;;;;;;5092450;28;20024;-76
2022/07/30 08:18:01;;;;;;;26.33;4.68;;;19.70;73.10;;;;;;5093616;28;20028;-75
2022/07/30 08:20:27;;;;;;;7.20;2.58;;;19.80;73.00;;;;;;5075133;28;20607;-75
2022/07/30 08:22:53;;;;;;;5.70;2.95;;;19.80;72.60;;;;;;5075567;28;20027;-76
2022/07/30 08:25:19;;;;;;;4.40;2.20;;;19.80;72.30;;;;;;5075145;28;20156;-76
2022/07/30 08:27:44;;;;;;;4.35;2.30;;;19.90;72.00;;;;;;5075120;28;20502;-76
2022/07/30 08:30:10;;;;;;;6.53;2.20;;;19.90;71.20;;;;;;5093734;28;20099;-76
2022/07/30 08:32:36;;;;;;;2.95;1.95;;;19.90;70.90;;;;;;5094345;28;20439;-76
2022/07/30 08:35:03;;;;;;;4.30;1.80;;;19.90;70.20;;;;;;5075007;28;20040;-75
2022/07/30 08:37:29;;;;;;;3.70;1.90;;;20.00;70.00;;;;;;5091964;28;20024;-75
2022/07/30 08:39:54;;;;;;;19.95;4.03;;;20.00;69.90;;;;;;5076160;28;20498;-75
2022/07/30 08:42:21;;;;;;;12.52;2.63;;;20.10;69.90;;;;;;5093928;28;20479;-75
2022/07/30 08:44:47;;;;;;;9.75;2.80;;;20.20;69.90;;;;;;5075466;28;20024;-75
2022/07/30 08:47:19;;;;;;;3.90;2.10;;;20.20;69.70;;;;;;5092186;28;20027;-75
2022/07/30 08:49:46;;;;;;;5.05;2.15;;;20.30;69.40;;;;;;5093429;28;20052;-75
2022/07/30 08:52:12;;;;;;;3.47;1.63;;;20.30;69.30;;;;;;5093473;28;20020;-76
2022/07/30 08:54:39;;;;;;;3.33;1.55;;;20.30;68.90;;;;;;5074992;28;20024;-74
2022/07/30 08:57:05;;;;;;;2.58;1.52;;;20.40;68.00;;;;;;5091885;28;20410;-76
2022/07/30 08:59:31;;;;;;;4.15;1.80;;;20.40;67.40;;;;;;5092991;28;20024;-74
2022/07/30 09:01:58;;;;;;;3.50;1.58;;;20.40;67.00;;;;;;5091864;28;20027;-74
2022/07/30 09:04:23;;;;;;;6.80;2.03;;;20.50;66.90;;;;;;5091531;28;20387;-74
2022/07/30 09:06:49;;;;;;;2.95;2.00;;;20.50;67.00;;;;;;5075339;28;20017;-74
2022/07/30 09:09:15;;;;;;;4.80;1.90;;;20.60;66.70;;;;;;5076349;28;20031;-74
2022/07/30 09:11:40;;;;;;;3.58;2.35;;;20.60;66.60;;;;;;5092421;28;20459;-74
2022/07/30 09:14:12;;;;;;;2.55;1.77;;;20.60;66.80;;;;;;5095015;28;20024;-75
2022/07/30 09:16:38;;;;;;;2.45;1.83;;;20.60;66.40;;;;;;5095485;28;20494;-75
2022/07/30 09:19:30;;;;;;;277.30;25.13;;;20.70;66.10;;;;;;5093112;28;20034;-75
2022/07/30 09:22:00;;;;;;;21.08;4.38;;;20.70;65.80;;;;;;5090225;28;20043;-75
2022/07/30 09:24:26;;;;;;;11.90;2.60;;;20.80;64.40;;;;;;5093491;28;20100;-74
2022/07/30 09:26:58;;;;;;;4.75;1.80;;;20.80;64.20;;;;;;5092166;28;20025;-74
2022/07/30 09:29:26;;;;;;;4.75;1.98;;;20.80;63.70;;;;;;5096517;28;20205;-75
2022/07/30 09:31:54;;;;;;;2.40;1.50;;;20.80;63.70;;;;;;5094409;28;20107;-75
2022/07/30 09:34:32;;;;;;;2.97;1.48;;;20.90;63.80;;;;;;5078809;28;20123;-75
2022/07/30 09:37:01;;;;;;;3.60;1.38;;;21.00;63.70;;;;;;5094782;28;20036;-74
2022/07/30 09:39:40;;;;;;;3.97;1.85;;;21.00;63.50;;;;;;5096213;28;20390;-74
2022/07/30 09:42:38;;;;;;;2.53;1.70;;;21.10;63.00;;;;;;5095883;28;20028;-76
2022/07/30 09:45:12;;;;;;;3.17;1.55;;;21.20;62.70;;;;;;5032031;28;20560;-76
2022/07/30 09:47:43;;;;;;;2.28;1.30;;;21.30;62.20;;;;;;5076469;28;20016;-76
2022/07/30 09:50:49;;;;;;;2.80;1.65;;;21.30;61.90;;;;;;5093019;28;20023;-75
2022/07/30 09:53:16;;;;;;;10.02;2.10;;;21.30;61.30;;;;;;5075358;28;20471;-74
2022/07/30 09:55:42;;;;;;;6.82;2.20;;;21.40;61.70;;;;;;5094429;28;20025;-75
2022/07/30 09:58:08;;;;;;;5.80;2.10;;;21.40;61.50;;;;;;5093407;28;20502;-75
2022/07/30 10:00:36;;;;;;;3.88;1.65;;;21.50;61.60;;;;;;5094029;28;20419;-75
2022/07/30 10:03:18;;;;;;;6.78;2.13;;;21.50;61.40;;;;;;5094090;28;20024;-75
2022/07/30 10:05:58;;;;;;;3.05;1.40;;;21.50;61.20;;;;;;5093895;28;20036;-75
2022/07/30 10:08:37;;;;;;;2.03;1.35;;;21.50;60.70;;;;;;5092491;28;20043;-75
2022/07/30 10:11:04;;;;;;;2.72;1.30;;;21.60;60.30;;;;;;5077235;28;20024;-75
2022/07/30 10:13:31;;;;;;;5.32;1.85;;;21.60;60.50;;;;;;5098685;28;20490;-76
2022/07/30 10:15:57;;;;;;;3.83;1.35;;;21.70;60.60;;;;;;5079524;28;20487;-76
2022/07/30 10:18:23;;;;;;;1.77;1.40;;;21.80;60.50;;;;;;5079126;28;20027;-75
2022/07/30 10:20:49;;;;;;;3.40;1.45;;;21.90;60.00;;;;;;5095849;28;20028;-76
2022/07/30 10:23:16;;;;;;;2.15;1.15;;;21.90;58.80;;;;;;5097325;28;20107;-76
2022/07/30 10:25:43;;;;;;;6.82;1.48;;;22.00;57.80;;;;;;5079907;28;20020;-75
2022/07/30 10:28:09;;;;;;;3.20;1.15;;;22.00;57.40;;;;;;5095613;28;20019;-75
2022/07/30 10:30:36;;;;;;;2.85;1.50;;;22.00;57.10;;;;;;5078768;28;20137;-76
2022/07/30 10:33:02;;;;;;;2.53;1.27;;;22.00;57.20;;;;;;5096174;28;20495;-76
2022/07/30 10:35:28;;;;;;;1.95;1.10;;;22.10;57.20;;;;;;5096909;28;20433;-76
2022/07/30 10:37:56;;;;;;;2.92;1.63;;;22.20;57.00;;;;;;5078182;28;20111;-75
2022/07/30 10:40:39;;;;;;;2.38;1.23;;;22.30;56.30;;;;;;5096989;28;20503;-74
2022/07/30 10:43:31;;;;;;;2.30;1.17;;;22.30;56.40;;;;;;5095300;28;20039;-74
2022/07/30 10:46:17;;;;;;;2.40;1.45;;;22.30;56.50;;;;;;5096055;28;20024;-75
2022/07/30 10:48:44;;;;;;;3.35;1.30;;;22.40;56.50;;;;;;5095135;28;20016;-76
2022/07/30 10:51:10;;;;;;;13.13;1.65;;;22.40;56.70;;;;;;5078409;28;20027;-76
2022/07/30 10:53:44;;;;;;;1.95;1.00;;;22.50;56.70;;;;;;5096178;28;20024;-76
2022/07/30 10:56:22;;;;;;;2.80;1.20;;;22.60;56.50;;;;;;5077837;28;20369;-74
2022/07/30 10:59:06;;;;;;;4.70;1.60;;;22.60;55.70;;;;;;5096152;28;20028;-76
2022/07/30 11:01:47;;;;;;;5.35;1.27;;;22.70;55.20;;;;;;5093806;28;20043;-76
2022/07/30 11:04:27;;;;;;;1.35;1.00;;;22.80;55.40;;;;;;5095966;28;20054;-74
2022/07/30 11:07:21;;;;;;;2.08;1.25;;;22.90;54.90;;;;;;5077816;28;20475;-74
2022/07/30 11:09:49;;;;;;;2.55;1.10;;;22.90;53.50;;;;;;5077717;28;20031;-74
2022/07/30 11:12:14;;;;;;;1.63;1.10;;;22.90;53.70;;;;;;5094888;28;20020;-74
2022/07/30 11:14:46;;;;;;;2.08;1.67;;;23.00;53.80;;;;;;5095593;28;20024;-74
2022/07/30 11:17:17;;;;;;;1.70;1.00;;;23.00;53.80;;;;;;5095746;28;20111;-76
2022/07/30 11:20:01;;;;;;;3.53;1.33;;;23.10;54.10;;;;;;5090241;28;20269;-75
2022/07/30 11:22:39;;;;;;;1.65;1.30;;;23.10;54.00;;;;;;5076918;28;20024;-74
2022/07/30 11:25:07;;;;;;;3.55;1.10;;;23.20;54.20;;;;;;5095642;28;20026;-75
2022/07/30 11:27:40;;;;;;;2.75;1.30;;;23.20;54.30;;;;;;5093990;28;20054;-76
2022/07/30 11:30:28;;;;;;;2.05;1.02;;;23.30;54.30;;;;;;5094181;28;20105;-76
2022/07/30 11:32:55;;;;;;;1.92;1.10;;;23.50;53.90;;;;;;5076559;28;20028;-76
2022/07/30 11:35:29;;;;;;;1.23;1.13;;;23.50;53.90;;;;;;5090020;28;20060;-75
2022/07/30 11:37:59;;;;;;;1.13;1.02;;;23.60;53.70;;;;;;5090498;28;20035;-75
2022/07/30 11:40:26;;;;;;;1.52;1.13;;;23.70;53.70;;;;;;5074620;28;20025;-75
2022/07/30 11:43:22;;;;;;;2.97;1.48;;;23.80;53.70;;;;;;5074405;28;20495;-75
2022/07/30 11:46:04;;;;;;;2.40;0.98;;;23.90;53.10;;;;;;5074237;28;20154;-75
2022/07/30 11:48:30;;;;;;;2.47;1.45;;;23.90;53.30;;;;;;5090035;28;20120;-75
2022/07/30 11:50:56;;;;;;;1.70;1.20;;;24.00;53.00;;;;;;5072711;28;20494;-75
2022/07/30 11:53:22;;;;;;;2.67;1.23;;;24.10;53.00;;;;;;5074089;28;20135;-74
2022/07/30 11:55:58;;;;;;;3.13;1.40;;;24.20;53.10;;;;;;5074177;28;20467;-76
2022/07/30 11:58:38;;;;;;;2.00;1.10;;;24.30;52.60;;;;;;5072188;28;20079;-75
2022/07/30 12:01:10;;;;;;;2.38;1.40;;;24.30;52.80;;;;;;5072819;28;20479;-74
2022/07/30 12:03:40;;;;;;;3.88;1.60;;;24.40;52.90;;;;;;5089451;28;20391;-74
2022/07/30 12:06:08;;;;;;;3.35;1.75;;;24.50;52.80;;;;;;5089267;28;20024;-75
2022/07/30 12:08:50;;;;;;;2.83;1.33;;;24.50;52.80;;;;;;5073980;28;20479;-75
2022/07/30 12:11:16;;;;;;;1.98;1.63;;;24.70;52.70;;;;;;5089108;28;20043;-75
2022/07/30 12:13:43;;;;;;;2.22;1.30;;;24.70;52.90;;;;;;5072521;28;20472;-75
2022/07/30 12:16:14;;;;;;;5.40;1.40;;;24.80;52.70;;;;;;5072361;28;20023;-76
2022/07/30 12:18:41;;;;;;;4.35;1.50;;;24.90;52.70;;;;;;5089460;28;20035;-75
2022/07/30 12:21:10;;;;;;;2.15;1.40;;;25.00;52.60;;;;;;5069270;28;20082;-77
2022/07/30 12:23:36;;;;;;;7.03;1.50;;;25.20;52.60;;;;;;5089141;28;20122;-75
2022/07/30 12:26:04;;;;;;;2.08;1.30;;;25.30;52.60;;;;;;5073938;28;20509;-76
2022/07/30 12:28:32;;;;;;;2.22;1.20;;;25.40;52.40;;;;;;5073962;28;20047;-74
2022/07/30 12:30:59;;;;;;;3.38;1.58;;;25.50;52.30;;;;;;5088845;28;20057;-74
2022/07/30 12:33:25;;;;;;;2.97;1.20;;;25.60;52.00;;;;;;5076256;28;20536;-73
2022/07/30 12:35:56;;;;;;;1.95;1.40;;;25.70;52.00;;;;;;5075496;28;20016;-75
2022/07/30 12:38:23;;;;;;;1.67;1.17;;;25.90;52.00;;;;;;5093566;28;20122;-74
2022/07/30 12:41:03;;;;;;;2.75;1.33;;;26.10;51.80;;;;;;5092926;28;20013;-74
2022/07/30 12:44:01;;;;;;;4.60;1.58;;;26.20;51.20;;;;;;5093458;28;20024;-74
2022/07/30 12:46:27;;;;;;;3.00;1.20;;;26.30;50.90;;;;;;5048627;28;20081;-74
2022/07/30 12:48:56;;;;;;;1.60;1.50;;;26.40;51.10;;;;;;5075117;28;20059;-74
2022/07/30 12:51:25;;;;;;;2.67;1.10;;;26.40;51.00;;;;;;5092232;28;20129;-74
2022/07/30 12:53:51;;;;;;;2.15;1.50;;;26.40;50.80;;;;;;5093681;28;20020;-75
2022/07/30 12:56:23;;;;;;;1.92;1.20;;;26.40;50.80;;;;;;5093600;28;20027;-75
2022/07/30 12:58:49;;;;;;;2.78;1.40;;;26.40;50.70;;;;;;5074790;28;20065;-74
2022/07/30 13:01:15;;;;;;;2.95;1.05;;;26.50;50.60;;;;;;5074863;28;20532;-75